Time;durP1;ratioP1;P1;durP2;ratioP2;P2;SDS_P1;SDS_P2;PMS_P1;PMS_P2;Temp;Humidity;BMP_temperature;BMP_pressure;BME280_temperature;BME280_humidity;BME280_pressure;Samples;Min_cycle;Max_cycle;Signal;HPM_P1;HPM_P2
2022/09/06 00:01:53;;;;;;;1.05;1.05;;;;;;;;;;5054213;28;20257;-83
2022/09/06 00:04:21;;;;;;;1.33;1.33;;;;;;;;;;5054276;28;20312;-83
2022/09/06 00:06:48;;;;;;;1.63;1.52;;;;;;;;;;5054205;28;20229;-84
2022/09/06 00:09:16;;;;;;;1.30;1.20;;;;;;;;;;5054232;28;20284;-84
2022/09/06 00:11:43;;;;;;;1.55;1.45;;;;;;;;;;5053917;28;20253;-83
2022/09/06 00:14:11;;;;;;;1.50;1.40;;;;;;;;;;5054331;28;20666;-83
2022/09/06 00:16:40;;;;;;;1.67;1.58;;;;;;;;;;5054332;28;20289;-83
2022/09/06 00:19:07;;;;;;;1.40;1.40;;;;;;;;;;5054548;28;20228;-84
2022/09/06 00:21:35;;;;;;;2.67;1.48;;;;;;;;;;5053701;28;20272;-83
2022/09/06 00:24:03;;;;;;;1.40;1.30;;;;;;;;;;5053657;28;20221;-84
2022/09/06 00:26:31;;;;;;;1.30;1.25;;;;;;;;;;5053418;28;20220;-83
2022/09/06 00:28:59;;;;;;;1.55;1.30;;;;;;;;;;5053422;28;20288;-83
2022/09/06 00:31:27;;;;;;;1.42;1.33;;;;;;;;;;5053744;28;20304;-84
2022/09/06 00:33:56;;;;;;;0.95;0.95;;;;;;;;;;5053561;28;20284;-84
2022/09/06 00:36:24;;;;;;;1.73;1.63;;;;;;;;;;5053679;28;20284;-83
2022/09/06 00:38:51;;;;;;;1.48;1.38;;;;;;;;;;5053618;28;20240;-84
2022/09/06 00:41:19;;;;;;;1.42;1.40;;;;;;;;;;5053490;28;20308;-83
2022/09/06 00:43:47;;;;;;;1.50;1.40;;;;;;;;;;5053376;28;20260;-84
2022/09/06 00:46:18;;;;;;;1.70;1.50;;;;;;;;;;5053230;28;20240;-83
2022/09/06 00:48:47;;;;;;;1.40;1.35;;;;;;;;;;5053652;28;20644;-83
2022/09/06 00:51:17;;;;;;;1.45;1.38;;;;;;;;;;5053233;28;20299;-84
2022/09/06 00:53:45;;;;;;;1.80;1.70;;;;;;;;;;5053128;28;20297;-84
2022/09/06 00:56:13;;;;;;;1.27;1.27;;;;;;;;;;5053241;28;20636;-84
2022/09/06 00:58:41;;;;;;;1.52;1.42;;;;;;;;;;5053128;28;20296;-84
2022/09/06 01:01:08;;;;;;;1.65;1.55;;;;;;;;;;5053054;28;20229;-83
2022/09/06 01:03:36;;;;;;;1.60;1.50;;;;;;;;;;5053027;28;20280;-84
2022/09/06 01:06:20;;;;;;;1.25;1.25;;;;;;;;;;5053502;28;20201;-83
2022/09/06 01:09:02;;;;;;;1.60;1.50;;;;;;;;;;5053313;28;20236;-84
2022/09/06 01:11:49;;;;;;;2.20;1.58;;;;;;;;;;5053470;28;20227;-82
2022/09/06 01:14:30;;;;;;;1.75;1.65;;;;;;;;;;5052844;28;20248;-83
2022/09/06 01:17:07;;;;;;;1.52;1.45;;;;;;;;;;5052937;28;20685;-83
2022/09/06 01:20:27;;;;;;;1.40;1.40;;;;;;;;;;5053132;28;20626;-83
2022/09/06 01:23:35;;;;;;;1.60;1.50;;;;;;;;;;5036778;28;20312;-83
2022/09/06 01:26:15;;;;;;;2.35;1.67;;;;;;;;;;5053164;28;20308;-83
2022/09/06 01:28:46;;;;;;;2.30;2.10;;;;;;;;;;5052729;28;20233;-83
2022/09/06 01:31:23;;;;;;;2.10;2.00;;;;;;;;;;5053016;28;20725;-85
2022/09/06 01:34:07;;;;;;;2.30;1.92;;;;;;;;;;5052815;28;20217;-83
2022/09/06 01:36:41;;;;;;;2.40;1.83;;;;;;;;;;5052632;28;20306;-83
2022/09/06 01:39:21;;;;;;;2.20;2.10;;;;;;;;;;5053039;28;20236;-84
2022/09/06 01:41:49;;;;;;;1.95;1.85;;;;;;;;;;5052723;28;20309;-84
2022/09/06 01:44:18;;;;;;;2.35;2.25;;;;;;;;;;5052232;28;20312;-83
2022/09/06 01:46:53;;;;;;;2.50;2.30;;;;;;;;;;5052307;28;20292;-83
2022/09/06 01:49:30;;;;;;;2.53;2.33;;;;;;;;;;5053218;28;20283;-83
2022/09/06 01:52:07;;;;;;;2.28;2.17;;;;;;;;;;5054083;28;20253;-84
2022/09/06 01:54:54;;;;;;;2.38;2.17;;;;;;;;;;5053502;28;20245;-83
2022/09/06 01:57:38;;;;;;;2.63;2.42;;;;;;;;;;5053746;28;20288;-84
2022/09/06 02:00:09;;;;;;;2.47;2.30;;;;;;;;;;5052836;28;20228;-83
2022/09/06 02:02:48;;;;;;;2.85;2.65;;;;;;;;;;5052658;28;20222;-83
2022/09/06 02:05:24;;;;;;;2.67;2.47;;;;;;;;;;5052690;28;20313;-83
2022/09/06 02:07:54;;;;;;;3.15;2.20;;;;;;;;;;5052365;28;20247;-83
2022/09/06 02:10:26;;;;;;;2.38;2.28;;;;;;;;;;5052314;28;20637;-83
2022/09/06 02:12:55;;;;;;;2.40;2.20;;;;;;;;;;5052559;28;20249;-84
2022/09/06 02:15:28;;;;;;;2.15;2.05;;;;;;;;;;5052629;28;20233;-83
2022/09/06 02:18:01;;;;;;;2.40;2.25;;;;;;;;;;5052223;28;20281;-83
2022/09/06 02:20:32;;;;;;;2.17;2.05;;;;;;;;;;5052584;28;20229;-83
2022/09/06 02:23:04;;;;;;;2.10;2.00;;;;;;;;;;5052144;28;20752;-83
2022/09/06 02:25:38;;;;;;;2.13;2.03;;;;;;;;;;5052614;28;20603;-83
2022/09/06 02:28:06;;;;;;;2.42;2.22;;;;;;;;;;5052250;28;20216;-84
2022/09/06 02:30:40;;;;;;;2.35;2.20;;;;;;;;;;5052487;28;20619;-84
2022/09/06 02:33:13;;;;;;;2.28;2.08;;;;;;;;;;5052258;28;20245;-84
2022/09/06 02:35:45;;;;;;;2.30;2.20;;;;;;;;;;5052396;28;20634;-83
2022/09/06 02:38:12;;;;;;;2.92;2.25;;;;;;;;;;5052199;28;20248;-83
2022/09/06 02:40:42;;;;;;;2.67;2.47;;;;;;;;;;5052104;28;20198;-84
2022/09/06 02:43:09;;;;;;;2.80;2.60;;;;;;;;;;5052236;28;20220;-83
2022/09/06 02:45:38;;;;;;;2.08;1.98;;;;;;;;;;5051789;28;20312;-83
2022/09/06 02:48:06;;;;;;;1.83;1.73;;;;;;;;;;5051797;28;20289;-82
2022/09/06 02:50:33;;;;;;;2.60;2.40;;;;;;;;;;5051967;28;20229;-83
2022/09/06 02:53:04;;;;;;;2.45;2.25;;;;;;;;;;5051966;28;20313;-83
2022/09/06 02:55:31;;;;;;;3.08;2.88;;;;;;;;;;5052203;28;20284;-83
2022/09/06 02:57:59;;;;;;;2.70;2.50;;;;;;;;;;5051441;28;20288;-83
2022/09/06 03:00:27;;;;;;;2.33;2.22;;;;;;;;;;5051747;28;20210;-83
2022/09/06 03:02:56;;;;;;;2.17;2.08;;;;;;;;;;5051752;28;20308;-83
2022/09/06 03:05:25;;;;;;;2.42;2.33;;;;;;;;;;5051893;28;20668;-82
2022/09/06 03:07:53;;;;;;;2.72;2.53;;;;;;;;;;5053858;28;20285;-82
2022/09/06 03:10:21;;;;;;;2.53;2.33;;;;;;;;;;5055215;28;20229;-82
2022/09/06 03:12:48;;;;;;;2.40;2.20;;;;;;;;;;5054949;28;20226;-83
2022/09/06 03:15:17;;;;;;;2.80;2.60;;;;;;;;;;5055495;28;20296;-83
2022/09/06 03:17:45;;;;;;;2.58;2.45;;;;;;;;;;5054960;28;20248;-83
2022/09/06 03:20:14;;;;;;;2.35;2.17;;;;;;;;;;5055383;28;20202;-82
2022/09/06 03:22:42;;;;;;;2.40;2.20;;;;;;;;;;5054699;28;20325;-84
2022/09/06 03:25:10;;;;;;;1.85;1.75;;;;;;;;;;5054733;28;20233;-84
2022/09/06 03:27:38;;;;;;;1.70;1.60;;;;;;;;;;5054645;28;20288;-84
2022/09/06 03:30:07;;;;;;;1.70;1.60;;;;;;;;;;5055345;28;20213;-84
2022/09/06 03:32:35;;;;;;;2.10;2.00;;;;;;;;;;5054996;28;20313;-83
2022/09/06 03:35:03;;;;;;;1.90;1.80;;;;;;;;;;5055153;28;20237;-84
2022/09/06 03:37:32;;;;;;;2.58;2.38;;;;;;;;;;5054391;28;20229;-84
2022/09/06 03:39:59;;;;;;;2.22;2.03;;;;;;;;;;5054644;28;20293;-84
2022/09/06 03:42:27;;;;;;;1.88;1.77;;;;;;;;;;5054687;28;20214;-83
2022/09/06 03:44:55;;;;;;;1.77;1.67;;;;;;;;;;5054484;28;20202;-83
2022/09/06 03:47:22;;;;;;;1.90;1.80;;;;;;;;;;5054413;28;20665;-83
2022/09/06 03:49:50;;;;;;;1.92;1.83;;;;;;;;;;5054959;28;20280;-83
2022/09/06 03:52:17;;;;;;;1.73;1.63;;;;;;;;;;5054816;28;20229;-84
2022/09/06 03:54:55;;;;;;;2.05;1.95;;;;;;;;;;5054535;28;20288;-84
2022/09/06 03:57:23;;;;;;;2.50;2.38;;;;;;;;;;5053485;28;20201;-83
2022/09/06 03:59:50;;;;;;;2.90;2.70;;;;;;;;;;5054414;28;20673;-84
2022/09/06 04:02:18;;;;;;;3.20;3.00;;;;;;;;;;5054114;28;20329;-83
2022/09/06 04:04:45;;;;;;;2.45;2.25;;;;;;;;;;5054342;28;20251;-82
2022/09/06 04:07:13;;;;;;;2.40;2.20;;;;;;;;;;5054133;28;20229;-84
2022/09/06 04:09:41;;;;;;;1.70;1.60;;;;;;;;;;5054361;28;20678;-84
2022/09/06 04:12:10;;;;;;;2.15;2.05;;;;;;;;;;5054012;28;20765;-83
2022/09/06 04:14:37;;;;;;;2.25;2.15;;;;;;;;;;5054247;28;20701;-84
2022/09/06 04:17:05;;;;;;;2.00;1.90;;;;;;;;;;5054146;28;20276;-83
2022/09/06 04:19:33;;;;;;;1.95;1.85;;;;;;;;;;5053279;28;20656;-83
2022/09/06 04:22:00;;;;;;;1.80;1.70;;;;;;;;;;5054199;28;20311;-83
2022/09/06 04:24:28;;;;;;;1.90;1.80;;;;;;;;;;5054110;28;20289;-83
2022/09/06 04:26:55;;;;;;;1.88;1.77;;;;;;;;;;5053926;28;20316;-84
2022/09/06 04:29:24;;;;;;;2.15;2.05;;;;;;;;;;5053916;28;20233;-83
2022/09/06 04:31:52;;;;;;;2.08;1.98;;;;;;;;;;5053936;28;20308;-83
2022/09/06 04:34:19;;;;;;;1.80;1.70;;;;;;;;;;5053804;28;20197;-83
2022/09/06 04:36:47;;;;;;;1.85;1.75;;;;;;;;;;5053081;28;20194;-84
2022/09/06 04:39:14;;;;;;;2.22;2.13;;;;;;;;;;5054047;28;20292;-84
2022/09/06 04:41:42;;;;;;;2.10;1.90;;;;;;;;;;5053535;28;20317;-85
2022/09/06 04:44:09;;;;;;;2.00;1.90;;;;;;;;;;5053668;28;20209;-83
2022/09/06 04:46:40;;;;;;;2.53;2.40;;;;;;;;;;5055366;28;20776;-83
2022/09/06 04:49:09;;;;;;;2.25;2.05;;;;;;;;;;5055357;28;20281;-84
2022/09/06 04:51:38;;;;;;;2.80;2.42;;;;;;;;;;5053626;28;20305;-84
2022/09/06 04:54:05;;;;;;;2.53;2.40;;;;;;;;;;5053964;28;20233;-83
2022/09/06 04:56:33;;;;;;;2.15;2.05;;;;;;;;;;5053353;28;20284;-83
2022/09/06 04:59:00;;;;;;;2.10;2.00;;;;;;;;;;5053735;28;20255;-83
2022/09/06 05:01:28;;;;;;;2.65;2.45;;;;;;;;;;5053056;28;20309;-83
2022/09/06 05:03:57;;;;;;;2.63;2.42;;;;;;;;;;5053572;28;20273;-83
2022/09/06 05:06:25;;;;;;;2.33;2.20;;;;;;;;;;5053186;28;20312;-84
2022/09/06 05:08:53;;;;;;;2.20;2.10;;;;;;;;;;5053429;28;20297;-83
2022/09/06 05:11:20;;;;;;;2.80;2.60;;;;;;;;;;5053352;28;20260;-83
2022/09/06 05:13:49;;;;;;;3.10;2.90;;;;;;;;;;5052980;28;20291;-83
2022/09/06 05:16:16;;;;;;;2.63;2.42;;;;;;;;;;5052948;28;20279;-84
2022/09/06 05:18:44;;;;;;;3.85;3.55;;;;;;;;;;5053197;28;20205;-84
2022/09/06 05:21:13;;;;;;;2.50;2.30;;;;;;;;;;5052407;28;20300;-84
2022/09/06 05:23:40;;;;;;;2.60;2.40;;;;;;;;;;5053223;28;20648;-84
2022/09/06 05:26:08;;;;;;;2.72;2.53;;;;;;;;;;5053086;28;20229;-83
2022/09/06 05:28:36;;;;;;;2.60;2.40;;;;;;;;;;5053517;28;20753;-81
2022/09/06 05:31:08;;;;;;;2.65;2.45;;;;;;;;;;5052259;28;20308;-81
2022/09/06 05:33:36;;;;;;;2.17;1.98;;;;;;;;;;5053337;28;20261;-80
2022/09/06 05:36:04;;;;;;;3.50;2.40;;;;;;;;;;5053252;28;20289;-80
2022/09/06 05:38:33;;;;;;;2.58;2.38;;;;;;;;;;5052404;28;20244;-80
2022/09/06 05:41:01;;;;;;;2.25;2.15;;;;;;;;;;5052813;28;20293;-80
2022/09/06 05:43:28;;;;;;;2.70;2.50;;;;;;;;;;5050148;28;20289;-80
2022/09/06 05:45:56;;;;;;;2.13;2.00;;;;;;;;;;5057716;28;20292;-81
2022/09/06 05:48:23;;;;;;;2.35;2.17;;;;;;;;;;5053276;28;20904;-81
2022/09/06 05:51:01;;;;;;;2.38;2.17;;;;;;;;;;5071772;28;20288;-83
2022/09/06 05:53:36;;;;;;;2.60;2.40;;;;;;;;;;5055835;28;20597;-81
2022/09/06 05:56:04;;;;;;;2.40;2.30;;;;;;;;;;5053694;28;20231;-80
2022/09/06 05:58:32;;;;;;;2.53;2.40;;;;;;;;;;5051430;28;20229;-81
2022/09/06 06:01:07;;;;;;;2.30;2.10;;;;;;;;;;5041671;28;20635;-81
2022/09/06 06:03:34;;;;;;;2.10;2.00;;;;;;;;;;5033696;28;20265;-80
2022/09/06 06:06:02;;;;;;;2.70;2.42;;;;;;;;;;5034572;28;20289;-80
2022/09/06 06:08:29;;;;;;;2.80;2.60;;;;;;;;;;5033440;28;20318;-80
2022/09/06 06:11:01;;;;;;;1.98;1.80;;;;;;;;;;5039196;28;20289;-81
2022/09/06 06:13:33;;;;;;;1.98;1.88;;;;;;;;;;5053255;28;20601;-80
2022/09/06 06:16:02;;;;;;;2.15;2.05;;;;;;;;;;5053190;28;20206;-80
2022/09/06 06:18:29;;;;;;;2.13;2.03;;;;;;;;;;5053053;28;20224;-80
2022/09/06 06:21:09;;;;;;;2.20;2.10;;;;;;;;;;5052941;28;20296;-80
2022/09/06 06:23:36;;;;;;;3.00;2.80;;;;;;;;;;5053208;28;20264;-80
2022/09/06 06:26:06;;;;;;;4.20;2.55;;;;;;;;;;5053252;28;20721;-80
2022/09/06 06:28:34;;;;;;;2.55;2.35;;;;;;;;;;5053180;28;20253;-81
2022/09/06 06:31:02;;;;;;;2.65;2.45;;;;;;;;;;5053246;28;20267;-81
2022/09/06 06:33:30;;;;;;;2.85;2.65;;;;;;;;;;5053773;28;20248;-80
2022/09/06 06:35:59;;;;;;;2.80;2.60;;;;;;;;;;5052912;28;20201;-79
2022/09/06 06:38:31;;;;;;;2.13;2.00;;;;;;;;;;5062052;28;20189;-80
2022/09/06 06:40:59;;;;;;;4.78;2.65;;;;;;;;;;5073346;28;20276;-78
2022/09/06 06:43:34;;;;;;;2.83;2.63;;;;;;;;;;5075798;28;20284;-79
2022/09/06 06:46:02;;;;;;;2.80;2.60;;;;;;;;;;5056961;28;20201;-80
2022/09/06 06:48:30;;;;;;;3.83;3.53;;;;;;;;;;5056954;28;20604;-79
2022/09/06 06:50:57;;;;;;;3.92;3.50;;;;;;;;;;5056975;28;20269;-80
2022/09/06 06:53:25;;;;;;;3.33;3.03;;;;;;;;;;5056387;28;20236;-80
2022/09/06 06:55:53;;;;;;;3.03;2.83;;;;;;;;;;5056374;28;20293;-82
2022/09/06 06:58:21;;;;;;;3.20;2.90;;;;;;;;;;5055914;28;20705;-80
2022/09/06 07:00:50;;;;;;;3.30;3.00;;;;;;;;;;5056373;28;20217;-80
2022/09/06 07:03:18;;;;;;;3.85;3.55;;;;;;;;;;5055750;28;20249;-80
2022/09/06 07:05:46;;;;;;;3.70;3.38;;;;;;;;;;5056262;28;20197;-79
2022/09/06 07:08:13;;;;;;;3.58;3.28;;;;;;;;;;5055387;28;20226;-80
2022/09/06 07:10:41;;;;;;;3.97;3.67;;;;;;;;;;5055781;28;20247;-81
2022/09/06 07:13:08;;;;;;;4.07;3.78;;;;;;;;;;5056245;28;20645;-80
2022/09/06 07:15:36;;;;;;;3.45;3.15;;;;;;;;;;5056371;28;20288;-80
2022/09/06 07:18:05;;;;;;;3.63;3.33;;;;;;;;;;5056194;28;20232;-81
2022/09/06 07:20:33;;;;;;;2.88;2.67;;;;;;;;;;5056047;28;20213;-80
2022/09/06 07:23:01;;;;;;;3.92;3.63;;;;;;;;;;5055458;28;20316;-80
2022/09/06 07:25:29;;;;;;;4.03;3.60;;;;;;;;;;5056954;28;20300;-80
2022/09/06 07:28:00;;;;;;;4.40;4.00;;;;;;;;;;5055743;28;20253;-81
2022/09/06 07:30:27;;;;;;;4.28;3.90;;;;;;;;;;5056267;28;20255;-82
2022/09/06 07:32:55;;;;;;;4.25;3.90;;;;;;;;;;5056112;28;20642;-81
2022/09/06 07:35:25;;;;;;;3.95;3.65;;;;;;;;;;5055824;28;20293;-80
2022/09/06 07:37:54;;;;;;;3.58;3.28;;;;;;;;;;5060685;28;20212;-81
2022/09/06 07:40:21;;;;;;;3.45;3.20;;;;;;;;;;5075790;28;20228;-81
2022/09/06 07:42:49;;;;;;;4.47;3.65;;;;;;;;;;5075113;28;20276;-81
2022/09/06 07:45:17;;;;;;;3.70;3.25;;;;;;;;;;5058738;28;20201;-79
2022/09/06 07:47:44;;;;;;;3.78;3.58;;;;;;;;;;5055258;28;20256;-79
2022/09/06 07:50:12;;;;;;;4.47;3.63;;;;;;;;;;5055997;28;20256;-80
2022/09/06 07:52:41;;;;;;;3.97;3.53;;;;;;;;;;5054150;28;20313;-80
2022/09/06 07:55:09;;;;;;;3.55;3.25;;;;;;;;;;5055645;28;20233;-81
2022/09/06 07:57:36;;;;;;;4.32;3.92;;;;;;;;;;5055626;28;20351;-79
2022/09/06 08:00:05;;;;;;;4.25;3.95;;;;;;;;;;5054923;28;20293;-80
2022/09/06 08:02:33;;;;;;;5.63;4.95;;;;;;;;;;5054877;28;20713;-80
2022/09/06 08:05:00;;;;;;;4.90;3.85;;;;;;;;;;5054584;28;20255;-80
2022/09/06 08:07:28;;;;;;;4.28;3.97;;;;;;;;;;5054776;28;20241;-81
2022/09/06 08:09:57;;;;;;;4.15;3.85;;;;;;;;;;5036422;28;20766;-80
2022/09/06 08:12:26;;;;;;;4.15;3.75;;;;;;;;;;5035689;28;20265;-80
2022/09/06 08:14:54;;;;;;;3.88;3.58;;;;;;;;;;5047716;28;20316;-80
2022/09/06 08:17:21;;;;;;;3.88;3.58;;;;;;;;;;5052240;28;20293;-79
2022/09/06 08:19:49;;;;;;;3.75;3.45;;;;;;;;;;5053094;28;20197;-78
2022/09/06 08:22:16;;;;;;;4.25;3.75;;;;;;;;;;5045053;28;20238;-81
2022/09/06 08:24:44;;;;;;;4.38;3.97;;;;;;;;;;5032695;28;20293;-79
2022/09/06 08:27:13;;;;;;;4.72;3.47;;;;;;;;;;5032320;28;20284;-79
2022/09/06 08:29:40;;;;;;;4.28;3.78;;;;;;;;;;5032395;28;20226;-80
2022/09/06 08:32:08;;;;;;;4.22;3.72;;;;;;;;;;5032734;28;20226;-79
2022/09/06 08:34:35;;;;;;;3.58;3.25;;;;;;;;;;5033450;28;20206;-79
2022/09/06 08:37:03;;;;;;;3.85;3.28;;;;;;;;;;5033179;28;20289;-79
2022/09/06 08:39:30;;;;;;;3.58;3.33;;;;;;;;;;5068826;28;20685;-79
2022/09/06 08:42:02;;;;;;;3.60;3.30;;;;;;;;;;5072873;28;20256;-80
2022/09/06 08:44:35;;;;;;;4.30;3.00;;;;;;;;;;5063343;28;20659;-80
2022/09/06 08:47:06;;;;;;;2.85;2.65;;;;;;;;;;5053038;28;20643;-79
2022/09/06 08:49:37;;;;;;;3.30;3.00;;;;;;;;;;5053217;28;20313;-79
2022/09/06 08:52:26;;;;;;;2.70;2.50;;;;;;;;;;5052833;28;20646;-80
2022/09/06 08:55:01;;;;;;;2.75;2.55;;;;;;;;;;5052886;28;20527;-80
2022/09/06 08:57:45;;;;;;;2.63;2.42;;;;;;;;;;5052610;28;20228;-80
2022/09/06 09:00:14;;;;;;;2.40;2.30;;;;;;;;;;5052863;28;20284;-80
2022/09/06 09:02:45;;;;;;;2.03;1.92;;;;;;;;;;5052398;28;20253;-80
2022/09/06 09:05:23;;;;;;;2.10;2.00;;;;;;;;;;5052654;28;20204;-79
2022/09/06 09:08:03;;;;;;;2.15;2.05;;;;;;;;;;5052430;28;20376;-78
2022/09/06 09:10:34;;;;;;;2.90;2.70;;;;;;;;;;5052423;28;20316;-79
2022/09/06 09:13:03;;;;;;;2.80;2.60;;;;;;;;;;5052625;28;20312;-78
2022/09/06 09:15:32;;;;;;;2.63;2.42;;;;;;;;;;5052271;28;20237;-78
2022/09/06 09:18:00;;;;;;;2.25;2.05;;;;;;;;;;5051915;28;20241;-79
2022/09/06 09:20:28;;;;;;;2.97;2.78;;;;;;;;;;5052466;28;20736;-79
2022/09/06 09:22:56;;;;;;;2.45;2.28;;;;;;;;;;5052053;28;20265;-80
2022/09/06 09:25:25;;;;;;;2.67;2.47;;;;;;;;;;5051887;28;20646;-78
2022/09/06 09:27:56;;;;;;;3.78;2.45;;;;;;;;;;5051739;28;20281;-79
2022/09/06 09:30:25;;;;;;;2.20;2.10;;;;;;;;;;5053097;28;20225;-79
2022/09/06 09:32:54;;;;;;;2.13;2.03;;;;;;;;;;5053595;28;20574;-79
2022/09/06 09:35:32;;;;;;;2.78;2.53;;;;;;;;;;5054321;28;20197;-79
2022/09/06 09:38:06;;;;;;;2.92;2.67;;;;;;;;;;5060960;28;20726;-79
2022/09/06 09:40:38;;;;;;;2.22;2.13;;;;;;;;;;5074156;28;20201;-79
2022/09/06 09:43:17;;;;;;;2.47;2.28;;;;;;;;;;5073174;28;20716;-80
2022/09/06 09:45:45;;;;;;;2.40;2.20;;;;;;;;;;5052658;28;20636;-79
2022/09/06 09:48:26;;;;;;;3.28;3.00;;;;;;;;;;5052544;28;20212;-80
2022/09/06 09:50:55;;;;;;;3.10;2.28;;;;;;;;;;5052929;28;20221;-80
2022/09/06 09:53:25;;;;;;;2.60;2.40;;;;;;;;;;5052188;28;20229;-79
2022/09/06 09:55:57;;;;;;;2.60;2.40;;;;;;;;;;5053064;28;20438;-80
2022/09/06 09:58:33;;;;;;;2.35;2.15;;;;;;;;;;5051981;28;20233;-79
2022/09/06 10:01:12;;;;;;;2.90;2.70;;;;;;;;;;5052715;28;20197;-80
2022/09/06 10:03:41;;;;;;;2.63;2.42;;;;;;;;;;5052115;28;20288;-79
2022/09/06 10:06:12;;;;;;;2.10;2.00;;;;;;;;;;5053272;28;20208;-80
2022/09/06 10:08:43;;;;;;;2.03;1.92;;;;;;;;;;5053135;28;20199;-80
2022/09/06 10:11:14;;;;;;;1.98;1.85;;;;;;;;;;5053294;28;20271;-80
2022/09/06 10:13:42;;;;;;;2.72;2.53;;;;;;;;;;5052763;28;20294;-80
2022/09/06 10:16:10;;;;;;;2.35;2.25;;;;;;;;;;5053757;28;20198;-80
2022/09/06 10:18:42;;;;;;;2.45;2.35;;;;;;;;;;5056206;28;20201;-80
2022/09/06 10:21:13;;;;;;;2.65;2.45;;;;;;;;;;5056337;28;20205;-81
2022/09/06 10:23:55;;;;;;;2.20;2.10;;;;;;;;;;5056747;28;20296;-81
2022/09/06 10:26:30;;;;;;;2.63;2.42;;;;;;;;;;5056572;28;20212;-81
2022/09/06 10:29:04;;;;;;;1.88;1.77;;;;;;;;;;5056400;28;20693;-81
2022/09/06 10:32:02;;;;;;;2.58;2.38;;;;;;;;;;5060791;28;20226;-81
2022/09/06 10:35:10;;;;;;;3.50;1.90;;;;;;;;;;5059671;28;20207;-80
2022/09/06 10:37:48;;;;;;;1.70;1.60;;;;;;;;;;5058989;28;20605;-81
2022/09/06 10:40:27;;;;;;;2.30;2.13;;;;;;;;;;5078916;28;20243;-80
2022/09/06 10:42:58;;;;;;;1.92;1.83;;;;;;;;;;5076714;28;20285;-81
2022/09/06 10:45:36;;;;;;;2.47;2.30;;;;;;;;;;5059889;28;20210;-81
2022/09/06 10:48:09;;;;;;;2.47;2.38;;;;;;;;;;5056472;28;20205;-81
2022/09/06 10:50:47;;;;;;;2.45;2.33;;;;;;;;;;5057086;28;20229;-82
2022/09/06 10:53:26;;;;;;;2.65;2.22;;;;;;;;;;5056300;28;20229;-80
2022/09/06 10:56:05;;;;;;;2.42;2.22;;;;;;;;;;5056551;28;20720;-81
2022/09/06 10:58:37;;;;;;;2.42;1.90;;;;;;;;;;5056824;28;20197;-81
2022/09/06 11:01:08;;;;;;;2.00;1.90;;;;;;;;;;5056517;28;20582;-81
2022/09/06 11:03:40;;;;;;;2.40;2.20;;;;;;;;;;5056266;28;20201;-81
2022/09/06 11:06:11;;;;;;;2.10;2.00;;;;;;;;;;5056012;28;20207;-82
2022/09/06 11:08:46;;;;;;;2.03;1.92;;;;;;;;;;5056131;28;20201;-81
2022/09/06 11:11:19;;;;;;;2.58;2.47;;;;;;;;;;5056239;28;20221;-81
2022/09/06 11:13:47;;;;;;;1.85;1.75;;;;;;;;;;5055578;28;20305;-81
2022/09/06 11:16:19;;;;;;;3.47;3.17;;;;;;;;;;5055327;28;20204;-79
2022/09/06 11:18:51;;;;;;;2.58;2.10;;;;;;;;;;5055138;28;20244;-81
2022/09/06 11:21:48;;;;;;;2.78;2.28;;;;;;;;;;5055321;28;20201;-81
2022/09/06 11:24:17;;;;;;;2.30;2.10;;;;;;;;;;5062657;23;20713;-80
2022/09/06 11:26:45;;;;;;;3.40;2.40;;;;;;;;;;5057250;28;20626;-81
2022/09/06 11:29:20;;;;;;;2.45;2.25;;;;;;;;;;5056606;28;20284;-80
2022/09/06 11:31:54;;;;;;;1.98;1.88;;;;;;;;;;5057738;28;20216;-82
2022/09/06 11:34:25;;;;;;;1.92;1.83;;;;;;;;;;5057019;28;20234;-80
2022/09/06 11:36:56;;;;;;;1.85;1.75;;;;;;;;;;5056890;28;20276;-80
2022/09/06 11:39:35;;;;;;;3.03;2.63;;;;;;;;;;5056704;28;20197;-80
2022/09/06 11:42:05;;;;;;;1.88;1.77;;;;;;;;;;5055710;28;20227;-79
2022/09/06 11:45:10;;;;;;;1.77;1.67;;;;;;;;;;5056344;28;20651;-82
2022/09/06 11:47:40;;;;;;;1.85;1.75;;;;;;;;;;5047007;28;20235;-82
2022/09/06 11:51:00;;;;;;;1.58;1.48;;;;;;;;;;5036163;28;20196;-80
2022/09/06 11:53:31;;;;;;;1.60;1.50;;;;;;;;;;5023334;28;20222;-81
2022/09/06 11:56:24;;;;;;;1.80;1.70;;;;;;;;;;5036572;28;20229;-80
2022/09/06 11:58:57;;;;;;;1.98;1.88;;;;;;;;;;5036400;28;20190;-83
2022/09/06 12:01:37;;;;;;;1.90;1.60;;;;;;;;;;5036005;28;20622;-82
2022/09/06 12:04:10;;;;;;;1.92;1.83;;;;;;;;;;5034354;28;20557;-80
2022/09/06 12:06:40;;;;;;;2.15;2.05;;;;;;;;;;5035832;28;20185;-82
2022/09/06 12:09:37;;;;;;;1.85;1.75;;;;;;;;;;5035600;28;20190;-81
2022/09/06 12:12:05;;;;;;;1.75;1.65;;;;;;;;;;5035236;28;20218;-82
2022/09/06 12:14:39;;;;;;;1.25;1.25;;;;;;;;;;5035332;28;20202;-80
2022/09/06 12:17:35;;;;;;;2.13;1.40;;;;;;;;;;5035985;28;20550;-79
2022/09/06 12:20:06;;;;;;;1.50;1.40;;;;;;;;;;5034720;28;20206;-80
2022/09/06 12:22:55;;;;;;;1.20;1.20;;;;;;;;;;5036349;28;20223;-82
2022/09/06 12:25:56;;;;;;;3.67;1.40;;;;;;;;;;5036786;28;20245;-80
2022/09/06 12:28:40;;;;;;;1.42;1.33;;;;;;;;;;5017580;28;20216;-79
2022/09/06 12:31:35;;;;;;;1.42;1.33;;;;;;;;;;5017427;28;20209;-81
2022/09/06 12:34:10;;;;;;;1.27;1.27;;;;;;;;;;5015777;28;20186;-79
2022/09/06 12:36:49;;;;;;;1.50;1.40;;;;;;;;;;5016305;28;20270;-80
2022/09/06 12:39:20;;;;;;;0.90;0.90;;;;;;;;;;5016351;28;20703;-80
2022/09/06 12:41:51;;;;;;;1.50;1.40;;;;;;;;;;5016709;28;20218;-79
2022/09/06 12:44:31;;;;;;;1.52;1.45;;;;;;;;;;5015077;28;20233;-79
2022/09/06 12:47:10;;;;;;;2.05;1.58;;;;;;;;;;5015652;28;20214;-80
2022/09/06 12:49:37;;;;;;;1.58;1.48;;;;;;;;;;5015853;28;20673;-82
2022/09/06 12:52:11;;;;;;;1.27;1.27;;;;;;;;;;5015294;28;20317;-80
2022/09/06 12:54:48;;;;;;;1.63;1.52;;;;;;;;;;5016915;28;20553;-79
2022/09/06 12:57:22;;;;;;;1.20;1.20;;;;;;;;;;5016489;28;20186;-82
2022/09/06 12:59:53;;;;;;;2.42;1.27;;;;;;;;;;5015042;28;20246;-81
2022/09/06 13:02:27;;;;;;;1.60;1.50;;;;;;;;;;5016292;28;20218;-81
2022/09/06 13:05:01;;;;;;;1.20;1.20;;;;;;;;;;5014945;28;20202;-82
2022/09/06 13:07:30;;;;;;;1.65;1.55;;;;;;;;;;5015541;28;20198;-82
2022/09/06 13:09:58;;;;;;;1.08;1.08;;;;;;;;;;5014519;28;20280;-79
2022/09/06 13:12:31;;;;;;;1.70;1.60;;;;;;;;;;5014880;28;20309;-79
2022/09/06 13:15:05;;;;;;;1.10;1.10;;;;;;;;;;5014245;28;20217;-80
2022/09/06 13:17:33;;;;;;;1.38;1.27;;;;;;;;;;5014323;28;20206;-79
2022/09/06 13:20:12;;;;;;;1.50;1.40;;;;;;;;;;5014491;28;20203;-80
2022/09/06 13:22:46;;;;;;;1.20;1.20;;;;;;;;;;5027893;28;20219;-82
2022/09/06 13:25:25;;;;;;;1.40;1.30;;;;;;;;;;5033419;28;20667;-81
2022/09/06 13:27:57;;;;;;;0.90;0.90;;;;;;;;;;5033008;28;20269;-83
2022/09/06 13:30:40;;;;;;;1.20;1.20;;;;;;;;;;5033256;28;20178;-82
2022/09/06 13:33:21;;;;;;;1.40;1.30;;;;;;;;;;5046871;22;20229;-80
2022/09/06 13:35:51;;;;;;;1.10;1.10;;;;;;;;;;5052302;28;20221;-81
2022/09/06 13:38:40;;;;;;;1.30;1.30;;;;;;;;;;5052011;28;20664;-81
2022/09/06 13:41:40;;;;;;;1.00;1.00;;;;;;;;;;5047767;28;20202;-80
2022/09/06 13:44:20;;;;;;;1.30;1.30;;;;;;;;;;5052030;28;20225;-80
2022/09/06 13:46:54;;;;;;;1.33;1.02;;;;;;;;;;5051777;28;20201;-81
2022/09/06 13:49:22;;;;;;;1.80;1.48;;;;;;;;;;5052372;28;20670;-81
2022/09/06 13:51:50;;;;;;;3.80;1.70;;;;;;;;;;5051131;28;20261;-80
2022/09/06 13:54:17;;;;;;;1.35;1.30;;;;;;;;;;5051934;28;20228;-80
2022/09/06 13:56:46;;;;;;;2.13;1.10;;;;;;;;;;5051786;28;20652;-80
2022/09/06 13:59:15;;;;;;;1.38;1.33;;;;;;;;;;5051937;28;20624;-80
2022/09/06 14:01:46;;;;;;;1.38;1.27;;;;;;;;;;5052227;28;20257;-80
2022/09/06 14:04:18;;;;;;;1.70;1.60;;;;;;;;;;5052216;28;20218;-80
2022/09/06 14:06:46;;;;;;;1.75;1.48;;;;;;;;;;5051673;28;20259;-82
2022/09/06 14:09:14;;;;;;;1.60;1.50;;;;;;;;;;5052026;28;20288;-79
2022/09/06 14:11:42;;;;;;;1.52;1.42;;;;;;;;;;5051753;28;20225;-80
2022/09/06 14:14:11;;;;;;;1.40;1.40;;;;;;;;;;5051682;28;20232;-80
2022/09/06 14:16:40;;;;;;;1.55;1.45;;;;;;;;;;5051485;28;20252;-80
2022/09/06 14:19:07;;;;;;;1.42;1.33;;;;;;;;;;5051618;28;20255;-81
2022/09/06 14:21:35;;;;;;;1.10;1.10;;;;;;;;;;5051746;28;20251;-81
2022/09/06 14:24:03;;;;;;;2.72;1.65;;;;;;;;;;5052009;28;20222;-81
2022/09/06 14:26:31;;;;;;;1.80;1.70;;;;;;;;;;5051221;28;20244;-79
2022/09/06 14:28:59;;;;;;;1.10;1.10;;;;;;;;;;5051437;28;20201;-80
2022/09/06 14:31:28;;;;;;;1.42;1.33;;;;;;;;;;5051462;28;20711;-80
2022/09/06 14:33:58;;;;;;;1.20;1.20;;;;;;;;;;5051345;28;20244;-81
2022/09/06 14:36:28;;;;;;;3.72;1.15;;;;;;;;;;5051505;28;20288;-81
2022/09/06 14:38:57;;;;;;;1.30;1.30;;;;;;;;;;5052120;28;20202;-81
2022/09/06 14:41:25;;;;;;;1.50;1.40;;;;;;;;;;5051385;28;20296;-82
2022/09/06 14:43:55;;;;;;;1.60;1.50;;;;;;;;;;5051405;28;20576;-80
2022/09/06 14:46:25;;;;;;;1.33;1.33;;;;;;;;;;5051367;28;20255;-81
2022/09/06 14:49:01;;;;;;;1.20;1.20;;;;;;;;;;5051701;28;20202;-81
2022/09/06 14:51:29;;;;;;;1.30;1.30;;;;;;;;;;5051693;28;20668;-81
2022/09/06 14:54:00;;;;;;;1.25;1.23;;;;;;;;;;5051461;28;20319;-84
2022/09/06 14:56:29;;;;;;;1.08;1.08;;;;;;;;;;5051094;28;20669;-79
2022/09/06 14:58:58;;;;;;;1.20;1.20;;;;;;;;;;5051112;28;20204;-80
2022/09/06 15:01:28;;;;;;;1.48;1.38;;;;;;;;;;5051747;28;20669;-81
2022/09/06 15:03:59;;;;;;;1.17;1.17;;;;;;;;;;5055075;28;20213;-79
2022/09/06 15:06:27;;;;;;;1.58;1.48;;;;;;;;;;5057607;28;20206;-80
2022/09/06 15:08:55;;;;;;;1.50;1.40;;;;;;;;;;5055214;28;20205;-82
2022/09/06 15:11:33;;;;;;;1.10;1.10;;;;;;;;;;5055733;28;20197;-80